sensor_id;sensor_type;location;lat;lon;timestamp;P1;durP1;ratioP1;P2;durP2;ratioP2
18019;SDS011;9135;48.362;10.878;2023-06-10T00:02:11;3.17;;;2.53;;
18019;SDS011;9135;48.362;10.878;2023-06-10T00:04:37;3.10;;;2.58;;
18019;SDS011;9135;48.362;10.878;2023-06-10T00:07:04;3.55;;;3.25;;
18019;SDS011;9135;48.362;10.878;2023-06-10T00:09:34;2.72;;;2.53;;
18019;SDS011;9135;48.362;10.878;2023-06-10T00:12:01;2.53;;;2.33;;
18019;SDS011;9135;48.362;10.878;2023-06-10T00:14:27;3.42;;;3.13;;
18019;SDS011;9135;48.362;10.878;2023-06-10T00:16:53;3.83;;;3.10;;
18019;SDS011;9135;48.362;10.878;2023-06-10T00:19:20;3.83;;;2.83;;
18019;SDS011;9135;48.362;10.878;2023-06-10T00:21:50;2.80;;;2.58;;
18019;SDS011;9135;48.362;10.878;2023-06-10T00:24:17;4.78;;;3.60;;
18019;SDS011;9135;48.362;10.878;2023-06-10T00:26:44;3.25;;;3.03;;
18019;SDS011;9135;48.362;10.878;2023-06-10T00:29:10;5.63;;;4.03;;
18019;SDS011;9135;48.362;10.878;2023-06-10T00:31:37;3.58;;;2.60;;
18019;SDS011;9135;48.362;10.878;2023-06-10T00:34:03;3.63;;;3.33;;
18019;SDS011;9135;48.362;10.878;2023-06-10T00:36:29;9.60;;;3.60;;
18019;SDS011;9135;48.362;10.878;2023-06-10T00:38:55;3.63;;;3.35;;
18019;SDS011;9135;48.362;10.878;2023-06-10T00:41:22;4.25;;;3.15;;
18019;SDS011;9135;48.362;10.878;2023-06-10T00:43:48;4.50;;;3.20;;
18019;SDS011;9135;48.362;10.878;2023-06-10T00:46:14;4.85;;;3.38;;
18019;SDS011;9135;48.362;10.878;2023-06-10T00:48:40;3.20;;;2.90;;
18019;SDS011;9135;48.362;10.878;2023-06-10T00:51:08;4.68;;;2.83;;
18019;SDS011;9135;48.362;10.878;2023-06-10T00:53:39;3.30;;;3.00;;
18019;SDS011;9135;48.362;10.878;2023-06-10T00:56:05;3.03;;;2.70;;
18019;SDS011;9135;48.362;10.878;2023-06-10T00:58:31;3.53;;;3.13;;
18019;SDS011;9135;48.362;10.878;2023-06-10T01:00:58;3.08;;;2.80;;
18019;SDS011;9135;48.362;10.878;2023-06-10T01:03:24;3.03;;;2.58;;
18019;SDS011;9135;48.362;10.878;2023-06-10T01:06:01;4.32;;;3.35;;
18019;SDS011;9135;48.362;10.878;2023-06-10T01:08:35;4.03;;;3.55;;
18019;SDS011;9135;48.362;10.878;2023-06-10T01:11:03;4.78;;;3.35;;
18019;SDS011;9135;48.362;10.878;2023-06-10T01:13:32;3.20;;;3.00;;
18019;SDS011;9135;48.362;10.878;2023-06-10T01:16:00;3.40;;;3.08;;
18019;SDS011;9135;48.362;10.878;2023-06-10T01:18:30;4.07;;;2.80;;
18019;SDS011;9135;48.362;10.878;2023-06-10T01:20:56;3.45;;;2.83;;
18019;SDS011;9135;48.362;10.878;2023-06-10T01:23:22;3.13;;;2.85;;
18019;SDS011;9135;48.362;10.878;2023-06-10T01:25:53;2.90;;;2.58;;
18019;SDS011;9135;48.362;10.878;2023-06-10T01:31:00;3.08;;;2.88;;
18019;SDS011;9135;48.362;10.878;2023-06-10T01:33:33;3.20;;;2.90;;
18019;SDS011;9135;48.362;10.878;2023-06-10T01:36:00;3.80;;;3.50;;
18019;SDS011;9135;48.362;10.878;2023-06-10T01:38:27;3.63;;;3.17;;
18019;SDS011;9135;48.362;10.878;2023-06-10T01:40:54;3.13;;;2.92;;
18019;SDS011;9135;48.362;10.878;2023-06-10T01:43:21;4.20;;;3.70;;
18019;SDS011;9135;48.362;10.878;2023-06-10T01:45:47;2.75;;;2.50;;
18019;SDS011;9135;48.362;10.878;2023-06-10T01:48:13;5.22;;;2.55;;
18019;SDS011;9135;48.362;10.878;2023-06-10T01:50:39;3.47;;;2.90;;
18019;SDS011;9135;48.362;10.878;2023-06-10T01:53:05;3.03;;;2.83;;
18019;SDS011;9135;48.362;10.878;2023-06-10T01:55:31;3.85;;;2.95;;
18019;SDS011;9135;48.362;10.878;2023-06-10T01:57:57;4.03;;;3.10;;
18019;SDS011;9135;48.362;10.878;2023-06-10T02:00:23;2.90;;;2.70;;
18019;SDS011;9135;48.362;10.878;2023-06-10T02:02:49;2.80;;;2.58;;
18019;SDS011;9135;48.362;10.878;2023-06-10T02:05:16;4.50;;;3.22;;
18019;SDS011;9135;48.362;10.878;2023-06-10T02:07:42;3.90;;;3.00;;
18019;SDS011;9135;48.362;10.878;2023-06-10T02:10:08;2.00;;;1.90;;
18019;SDS011;9135;48.362;10.878;2023-06-10T02:12:34;3.17;;;2.60;;
18019;SDS011;9135;48.362;10.878;2023-06-10T02:15:00;4.40;;;3.42;;
18019;SDS011;9135;48.362;10.878;2023-06-10T02:17:26;3.80;;;3.40;;
18019;SDS011;9135;48.362;10.878;2023-06-10T02:19:53;3.35;;;3.05;;
18019;SDS011;9135;48.362;10.878;2023-06-10T02:22:20;3.22;;;2.75;;
18019;SDS011;9135;48.362;10.878;2023-06-10T02:24:46;2.45;;;2.25;;
18019;SDS011;9135;48.362;10.878;2023-06-10T02:27:12;2.72;;;2.58;;
18019;SDS011;9135;48.362;10.878;2023-06-10T02:29:38;2.42;;;2.22;;
18019;SDS011;9135;48.362;10.878;2023-06-10T02:32:06;3.25;;;2.92;;
18019;SDS011;9135;48.362;10.878;2023-06-10T02:34:32;2.65;;;2.28;;
18019;SDS011;9135;48.362;10.878;2023-06-10T02:36:59;5.50;;;2.65;;
18019;SDS011;9135;48.362;10.878;2023-06-10T02:39:25;4.10;;;3.03;;
18019;SDS011;9135;48.362;10.878;2023-06-10T02:41:51;3.17;;;2.88;;
18019;SDS011;9135;48.362;10.878;2023-06-10T02:44:18;3.03;;;2.72;;
18019;SDS011;9135;48.362;10.878;2023-06-10T02:46:44;3.47;;;2.88;;
18019;SDS011;9135;48.362;10.878;2023-06-10T02:49:11;2.33;;;2.13;;
18019;SDS011;9135;48.362;10.878;2023-06-10T02:51:37;3.67;;;3.30;;
18019;SDS011;9135;48.362;10.878;2023-06-10T02:54:03;4.80;;;3.13;;
18019;SDS011;9135;48.362;10.878;2023-06-10T02:56:29;2.95;;;2.70;;
18019;SDS011;9135;48.362;10.878;2023-06-10T02:58:56;3.38;;;3.08;;
18019;SDS011;9135;48.362;10.878;2023-06-10T03:01:23;3.85;;;3.25;;
18019;SDS011;9135;48.362;10.878;2023-06-10T03:03:49;4.07;;;3.05;;
18019;SDS011;9135;48.362;10.878;2023-06-10T03:06:15;3.53;;;3.22;;
18019;SDS011;9135;48.362;10.878;2023-06-10T03:08:42;6.07;;;3.30;;
18019;SDS011;9135;48.362;10.878;2023-06-10T03:11:08;4.03;;;3.33;;
18019;SDS011;9135;48.362;10.878;2023-06-10T03:13:35;3.63;;;3.17;;
18019;SDS011;9135;48.362;10.878;2023-06-10T03:16:01;7.95;;;3.95;;
18019;SDS011;9135;48.362;10.878;2023-06-10T03:18:28;5.53;;;3.53;;
18019;SDS011;9135;48.362;10.878;2023-06-10T03:20:54;5.22;;;3.50;;
18019;SDS011;9135;48.362;10.878;2023-06-10T03:23:21;4.03;;;2.97;;
18019;SDS011;9135;48.362;10.878;2023-06-10T03:25:48;5.60;;;4.03;;
18019;SDS011;9135;48.362;10.878;2023-06-10T03:28:14;3.35;;;2.83;;
18019;SDS011;9135;48.362;10.878;2023-06-10T03:30:40;3.20;;;2.90;;
18019;SDS011;9135;48.362;10.878;2023-06-10T03:33:06;2.88;;;2.63;;
18019;SDS011;9135;48.362;10.878;2023-06-10T03:35:32;4.38;;;2.95;;
18019;SDS011;9135;48.362;10.878;2023-06-10T03:37:59;5.13;;;3.60;;
18019;SDS011;9135;48.362;10.878;2023-06-10T03:40:25;3.70;;;3.40;;
18019;SDS011;9135;48.362;10.878;2023-06-10T03:42:51;4.82;;;4.20;;
18019;SDS011;9135;48.362;10.878;2023-06-10T03:45:17;4.10;;;3.70;;
18019;SDS011;9135;48.362;10.878;2023-06-10T03:47:43;3.08;;;2.80;;
18019;SDS011;9135;48.362;10.878;2023-06-10T03:50:10;4.95;;;3.20;;
18019;SDS011;9135;48.362;10.878;2023-06-10T03:52:37;4.13;;;3.72;;
18019;SDS011;9135;48.362;10.878;2023-06-10T03:55:04;4.30;;;3.35;;
18019;SDS011;9135;48.362;10.878;2023-06-10T03:57:30;4.88;;;2.97;;
18019;SDS011;9135;48.362;10.878;2023-06-10T03:59:56;5.55;;;3.25;;
18019;SDS011;9135;48.362;10.878;2023-06-10T04:02:22;4.13;;;3.05;;
18019;SDS011;9135;48.362;10.878;2023-06-10T04:04:48;8.63;;;4.18;;
18019;SDS011;9135;48.362;10.878;2023-06-10T04:07:16;4.82;;;3.13;;
18019;SDS011;9135;48.362;10.878;2023-06-10T04:09:44;4.88;;;3.92;;
18019;SDS011;9135;48.362;10.878;2023-06-10T04:12:11;2.28;;;2.08;;
18019;SDS011;9135;48.362;10.878;2023-06-10T04:14:37;3.60;;;3.13;;
18019;SDS011;9135;48.362;10.878;2023-06-10T04:17:04;3.28;;;2.50;;
18019;SDS011;9135;48.362;10.878;2023-06-10T04:19:34;5.35;;;4.20;;
18019;SDS011;9135;48.362;10.878;2023-06-10T04:22:00;3.40;;;2.65;;
18019;SDS011;9135;48.362;10.878;2023-06-10T04:24:27;6.07;;;3.50;;
18019;SDS011;9135;48.362;10.878;2023-06-10T04:26:53;3.85;;;3.50;;
18019;SDS011;9135;48.362;10.878;2023-06-10T04:29:19;3.10;;;2.63;;
18019;SDS011;9135;48.362;10.878;2023-06-10T04:31:45;10.55;;;2.72;;
18019;SDS011;9135;48.362;10.878;2023-06-10T04:34:12;3.58;;;3.28;;
18019;SDS011;9135;48.362;10.878;2023-06-10T04:36:38;3.15;;;2.67;;
18019;SDS011;9135;48.362;10.878;2023-06-10T04:39:04;2.85;;;2.63;;
18019;SDS011;9135;48.362;10.878;2023-06-10T04:41:30;2.25;;;2.03;;
18019;SDS011;9135;48.362;10.878;2023-06-10T04:43:57;2.70;;;2.53;;
18019;SDS011;9135;48.362;10.878;2023-06-10T04:46:23;3.83;;;2.70;;
18019;SDS011;9135;48.362;10.878;2023-06-10T04:48:49;3.38;;;2.10;;
18019;SDS011;9135;48.362;10.878;2023-06-10T04:51:15;2.88;;;2.65;;
18019;SDS011;9135;48.362;10.878;2023-06-10T04:53:42;3.45;;;3.22;;
18019;SDS011;9135;48.362;10.878;2023-06-10T04:56:08;2.55;;;2.30;;
18019;SDS011;9135;48.362;10.878;2023-06-10T04:58:34;4.80;;;2.88;;
18019;SDS011;9135;48.362;10.878;2023-06-10T05:01:00;2.30;;;2.10;;
18019;SDS011;9135;48.362;10.878;2023-06-10T05:03:27;3.35;;;2.95;;
18019;SDS011;9135;48.362;10.878;2023-06-10T05:05:53;3.33;;;3.03;;
18019;SDS011;9135;48.362;10.878;2023-06-10T05:08:19;3.63;;;2.78;;
18019;SDS011;9135;48.362;10.878;2023-06-10T05:10:45;3.15;;;2.75;;
18019;SDS011;9135;48.362;10.878;2023-06-10T05:13:11;4.53;;;2.92;;
18019;SDS011;9135;48.362;10.878;2023-06-10T05:15:37;2.95;;;2.30;;
18019;SDS011;9135;48.362;10.878;2023-06-10T05:18:03;2.03;;;1.92;;
18019;SDS011;9135;48.362;10.878;2023-06-10T05:20:30;2.53;;;2.33;;
18019;SDS011;9135;48.362;10.878;2023-06-10T05:22:56;2.70;;;2.50;;
18019;SDS011;9135;48.362;10.878;2023-06-10T05:25:22;2.83;;;2.42;;
18019;SDS011;9135;48.362;10.878;2023-06-10T05:27:48;3.47;;;3.17;;
18019;SDS011;9135;48.362;10.878;2023-06-10T05:30:14;4.80;;;3.22;;
18019;SDS011;9135;48.362;10.878;2023-06-10T05:32:40;3.50;;;3.20;;
18019;SDS011;9135;48.362;10.878;2023-06-10T05:35:06;3.15;;;2.85;;
18019;SDS011;9135;48.362;10.878;2023-06-10T05:37:33;4.40;;;2.70;;
18019;SDS011;9135;48.362;10.878;2023-06-10T05:40:01;3.45;;;3.15;;
18019;SDS011;9135;48.362;10.878;2023-06-10T05:42:29;3.08;;;2.85;;
18019;SDS011;9135;48.362;10.878;2023-06-10T05:44:55;4.05;;;2.53;;
18019;SDS011;9135;48.362;10.878;2023-06-10T05:47:21;3.38;;;3.08;;
18019;SDS011;9135;48.362;10.878;2023-06-10T05:49:47;4.30;;;2.70;;
18019;SDS011;9135;48.362;10.878;2023-06-10T05:52:15;4.43;;;2.45;;
18019;SDS011;9135;48.362;10.878;2023-06-10T05:54:41;6.95;;;3.15;;
18019;SDS011;9135;48.362;10.878;2023-06-10T05:57:07;6.82;;;3.55;;
18019;SDS011;9135;48.362;10.878;2023-06-10T05:59:33;3.30;;;3.00;;
18019;SDS011;9135;48.362;10.878;2023-06-10T06:01:59;4.45;;;3.35;;
18019;SDS011;9135;48.362;10.878;2023-06-10T06:04:25;2.70;;;2.45;;
18019;SDS011;9135;48.362;10.878;2023-06-10T06:06:51;2.97;;;2.78;;
18019;SDS011;9135;48.362;10.878;2023-06-10T06:09:17;2.63;;;2.42;;
18019;SDS011;9135;48.362;10.878;2023-06-10T06:11:43;5.82;;;3.67;;
18019;SDS011;9135;48.362;10.878;2023-06-10T06:14:09;3.50;;;2.88;;
18019;SDS011;9135;48.362;10.878;2023-06-10T06:16:35;4.32;;;2.65;;
18019;SDS011;9135;48.362;10.878;2023-06-10T06:19:01;4.70;;;3.10;;
18019;SDS011;9135;48.362;10.878;2023-06-10T06:21:27;4.35;;;2.90;;
18019;SDS011;9135;48.362;10.878;2023-06-10T06:23:53;4.05;;;3.13;;
18019;SDS011;9135;48.362;10.878;2023-06-10T06:26:19;4.05;;;2.70;;
18019;SDS011;9135;48.362;10.878;2023-06-10T06:28:45;3.47;;;2.70;;
18019;SDS011;9135;48.362;10.878;2023-06-10T06:31:11;6.72;;;3.78;;
18019;SDS011;9135;48.362;10.878;2023-06-10T06:33:37;4.50;;;2.78;;
18019;SDS011;9135;48.362;10.878;2023-06-10T06:36:03;3.75;;;2.70;;
18019;SDS011;9135;48.362;10.878;2023-06-10T06:38:30;4.68;;;2.90;;
18019;SDS011;9135;48.362;10.878;2023-06-10T06:40:56;3.28;;;3.00;;
18019;SDS011;9135;48.362;10.878;2023-06-10T06:43:22;3.58;;;3.03;;
18019;SDS011;9135;48.362;10.878;2023-06-10T06:45:48;3.38;;;2.95;;
18019;SDS011;9135;48.362;10.878;2023-06-10T06:48:14;4.60;;;3.38;;
18019;SDS011;9135;48.362;10.878;2023-06-10T06:50:40;3.70;;;2.90;;
18019;SDS011;9135;48.362;10.878;2023-06-10T06:53:07;2.60;;;2.40;;
18019;SDS011;9135;48.362;10.878;2023-06-10T06:55:33;6.30;;;3.03;;
18019;SDS011;9135;48.362;10.878;2023-06-10T06:57:59;3.95;;;2.78;;
18019;SDS011;9135;48.362;10.878;2023-06-10T07:00:27;4.35;;;2.75;;
18019;SDS011;9135;48.362;10.878;2023-06-10T07:02:53;3.13;;;2.67;;
18019;SDS011;9135;48.362;10.878;2023-06-10T07:05:20;4.43;;;3.03;;
18019;SDS011;9135;48.362;10.878;2023-06-10T07:07:46;2.92;;;2.67;;
18019;SDS011;9135;48.362;10.878;2023-06-10T07:10:12;3.72;;;2.65;;
18019;SDS011;9135;48.362;10.878;2023-06-10T07:12:39;3.85;;;3.05;;
18019;SDS011;9135;48.362;10.878;2023-06-10T07:15:05;2.60;;;2.15;;
18019;SDS011;9135;48.362;10.878;2023-06-10T07:17:32;3.70;;;3.40;;
18019;SDS011;9135;48.362;10.878;2023-06-10T07:19:59;3.50;;;2.88;;
18019;SDS011;9135;48.362;10.878;2023-06-10T07:22:25;4.28;;;3.10;;
18019;SDS011;9135;48.362;10.878;2023-06-10T07:24:52;2.83;;;2.35;;
18019;SDS011;9135;48.362;10.878;2023-06-10T07:27:19;5.25;;;2.28;;
18019;SDS011;9135;48.362;10.878;2023-06-10T07:29:45;3.30;;;3.00;;
18019;SDS011;9135;48.362;10.878;2023-06-10T07:32:11;3.90;;;2.75;;
18019;SDS011;9135;48.362;10.878;2023-06-10T07:34:37;2.97;;;2.53;;
18019;SDS011;9135;48.362;10.878;2023-06-10T07:37:04;4.05;;;3.05;;
18019;SDS011;9135;48.362;10.878;2023-06-10T07:39:30;3.75;;;3.17;;
18019;SDS011;9135;48.362;10.878;2023-06-10T07:41:56;3.20;;;2.63;;
18019;SDS011;9135;48.362;10.878;2023-06-10T07:44:22;2.92;;;2.53;;
18019;SDS011;9135;48.362;10.878;2023-06-10T07:46:49;3.97;;;3.30;;
18019;SDS011;9135;48.362;10.878;2023-06-10T07:49:15;3.13;;;2.63;;
18019;SDS011;9135;48.362;10.878;2023-06-10T07:51:41;3.17;;;2.88;;
18019;SDS011;9135;48.362;10.878;2023-06-10T07:54:07;4.10;;;3.20;;
18019;SDS011;9135;48.362;10.878;2023-06-10T07:56:33;4.13;;;3.83;;
18019;SDS011;9135;48.362;10.878;2023-06-10T07:58:59;3.30;;;2.75;;
18019;SDS011;9135;48.362;10.878;2023-06-10T08:01:25;3.72;;;2.90;;
18019;SDS011;9135;48.362;10.878;2023-06-10T08:03:51;6.53;;;3.03;;
18019;SDS011;9135;48.362;10.878;2023-06-10T08:06:17;2.50;;;2.30;;
18019;SDS011;9135;48.362;10.878;2023-06-10T08:08:43;3.05;;;2.75;;
18019;SDS011;9135;48.362;10.878;2023-06-10T08:11:10;3.00;;;2.38;;
18019;SDS011;9135;48.362;10.878;2023-06-10T08:13:36;3.38;;;2.55;;
18019;SDS011;9135;48.362;10.878;2023-06-10T08:16:03;6.93;;;3.13;;
18019;SDS011;9135;48.362;10.878;2023-06-10T08:18:29;2.72;;;2.47;;
18019;SDS011;9135;48.362;10.878;2023-06-10T08:20:55;2.08;;;1.80;;
18019;SDS011;9135;48.362;10.878;2023-06-10T08:23:21;2.72;;;2.38;;
18019;SDS011;9135;48.362;10.878;2023-06-10T08:25:47;2.78;;;1.70;;
18019;SDS011;9135;48.362;10.878;2023-06-10T08:28:13;2.05;;;1.95;;
18019;SDS011;9135;48.362;10.878;2023-06-10T08:30:40;1.95;;;1.85;;
18019;SDS011;9135;48.362;10.878;2023-06-10T08:33:06;3.15;;;2.22;;
18019;SDS011;9135;48.362;10.878;2023-06-10T08:35:32;2.83;;;2.30;;
18019;SDS011;9135;48.362;10.878;2023-06-10T08:37:58;2.83;;;2.08;;
18019;SDS011;9135;48.362;10.878;2023-06-10T08:40:24;2.08;;;1.98;;
18019;SDS011;9135;48.362;10.878;2023-06-10T08:42:59;2.95;;;2.30;;
18019;SDS011;9135;48.362;10.878;2023-06-10T08:45:27;2.00;;;1.80;;
18019;SDS011;9135;48.362;10.878;2023-06-10T08:47:53;3.42;;;2.45;;
18019;SDS011;9135;48.362;10.878;2023-06-10T08:50:22;4.20;;;2.00;;
18019;SDS011;9135;48.362;10.878;2023-06-10T08:52:50;3.33;;;2.67;;
18019;SDS011;9135;48.362;10.878;2023-06-10T08:57:51;3.92;;;2.42;;
18019;SDS011;9135;48.362;10.878;2023-06-10T09:00:18;5.68;;;3.95;;
18019;SDS011;9135;48.362;10.878;2023-06-10T09:02:44;1.95;;;1.80;;
18019;SDS011;9135;48.362;10.878;2023-06-10T09:05:10;4.72;;;3.28;;
18019;SDS011;9135;48.362;10.878;2023-06-10T09:07:36;2.95;;;1.95;;
18019;SDS011;9135;48.362;10.878;2023-06-10T09:10:03;2.47;;;2.25;;
18019;SDS011;9135;48.362;10.878;2023-06-10T09:12:31;2.72;;;2.22;;
18019;SDS011;9135;48.362;10.878;2023-06-10T09:14:58;2.90;;;2.10;;
18019;SDS011;9135;48.362;10.878;2023-06-10T09:17:24;4.68;;;2.50;;
18019;SDS011;9135;48.362;10.878;2023-06-10T09:19:50;2.20;;;2.03;;
18019;SDS011;9135;48.362;10.878;2023-06-10T09:22:20;2.10;;;1.83;;
18019;SDS011;9135;48.362;10.878;2023-06-10T09:24:46;2.63;;;1.83;;
18019;SDS011;9135;48.362;10.878;2023-06-10T09:27:13;4.15;;;2.10;;
18019;SDS011;9135;48.362;10.878;2023-06-10T09:30:12;2.53;;;2.10;;
18019;SDS011;9135;48.362;10.878;2023-06-10T09:32:31;1.98;;;1.88;;
18019;SDS011;9135;48.362;10.878;2023-06-10T09:35:08;4.25;;;2.35;;
18019;SDS011;9135;48.362;10.878;2023-06-10T09:37:37;3.05;;;1.98;;
18019;SDS011;9135;48.362;10.878;2023-06-10T09:40:04;2.88;;;2.00;;
18019;SDS011;9135;48.362;10.878;2023-06-10T09:42:34;2.50;;;2.28;;
18019;SDS011;9135;48.362;10.878;2023-06-10T09:45:01;2.10;;;1.90;;
18019;SDS011;9135;48.362;10.878;2023-06-10T09:47:27;2.10;;;1.98;;
18019;SDS011;9135;48.362;10.878;2023-06-10T09:49:56;1.92;;;1.83;;
18019;SDS011;9135;48.362;10.878;2023-06-10T09:52:26;3.50;;;2.25;;
18019;SDS011;9135;48.362;10.878;2023-06-10T09:54:53;3.03;;;2.72;;
18019;SDS011;9135;48.362;10.878;2023-06-10T09:57:20;4.72;;;2.42;;
18019;SDS011;9135;48.362;10.878;2023-06-10T09:59:47;3.40;;;1.65;;
18019;SDS011;9135;48.362;10.878;2023-06-10T10:02:17;3.90;;;2.95;;
18019;SDS011;9135;48.362;10.878;2023-06-10T10:04:46;3.78;;;2.20;;
18019;SDS011;9135;48.362;10.878;2023-06-10T10:07:12;1.70;;;1.60;;
18019;SDS011;9135;48.362;10.878;2023-06-10T10:09:39;2.05;;;1.77;;
18019;SDS011;9135;48.362;10.878;2023-06-10T10:12:12;1.77;;;1.67;;
18019;SDS011;9135;48.362;10.878;2023-06-10T10:14:38;2.13;;;2.03;;
18019;SDS011;9135;48.362;10.878;2023-06-10T10:17:07;2.15;;;1.95;;
18019;SDS011;9135;48.362;10.878;2023-06-10T10:19:34;2.13;;;1.90;;
18019;SDS011;9135;48.362;10.878;2023-06-10T10:22:02;2.28;;;2.10;;
18019;SDS011;9135;48.362;10.878;2023-06-10T10:24:33;1.85;;;1.75;;
18019;SDS011;9135;48.362;10.878;2023-06-10T10:27:01;1.95;;;1.85;;
18019;SDS011;9135;48.362;10.878;2023-06-10T10:29:33;1.98;;;1.80;;
18019;SDS011;9135;48.362;10.878;2023-06-10T10:32:02;3.00;;;2.33;;
18019;SDS011;9135;48.362;10.878;2023-06-10T10:34:30;3.72;;;2.83;;
18019;SDS011;9135;48.362;10.878;2023-06-10T10:36:57;2.58;;;2.38;;
18019;SDS011;9135;48.362;10.878;2023-06-10T10:39:23;2.75;;;2.55;;
18019;SDS011;9135;48.362;10.878;2023-06-10T10:41:51;2.33;;;2.10;;
18019;SDS011;9135;48.362;10.878;2023-06-10T10:44:17;2.60;;;2.28;;
18019;SDS011;9135;48.362;10.878;2023-06-10T10:46:44;4.03;;;2.22;;
18019;SDS011;9135;48.362;10.878;2023-06-10T10:49:11;3.75;;;1.88;;
18019;SDS011;9135;48.362;10.878;2023-06-10T10:51:38;2.47;;;2.20;;
18019;SDS011;9135;48.362;10.878;2023-06-10T10:54:21;2.97;;;2.65;;
18019;SDS011;9135;48.362;10.878;2023-06-10T11:02:36;2.70;;;2.22;;
18019;SDS011;9135;48.362;10.878;2023-06-10T11:05:06;3.35;;;2.33;;
18019;SDS011;9135;48.362;10.878;2023-06-10T11:07:33;3.45;;;2.17;;
18019;SDS011;9135;48.362;10.878;2023-06-10T11:10:00;3.58;;;2.45;;
18019;SDS011;9135;48.362;10.878;2023-06-10T11:12:50;3.35;;;2.53;;
18019;SDS011;9135;48.362;10.878;2023-06-10T11:15:23;3.22;;;2.40;;
18019;SDS011;9135;48.362;10.878;2023-06-10T11:23:35;3.15;;;2.38;;
18019;SDS011;9135;48.362;10.878;2023-06-10T11:26:09;4.15;;;2.35;;
18019;SDS011;9135;48.362;10.878;2023-06-10T11:28:36;2.33;;;2.13;;
18019;SDS011;9135;48.362;10.878;2023-06-10T11:31:02;2.88;;;2.25;;
18019;SDS011;9135;48.362;10.878;2023-06-10T11:33:28;3.55;;;2.55;;
18019;SDS011;9135;48.362;10.878;2023-06-10T11:35:55;2.13;;;2.03;;
18019;SDS011;9135;48.362;10.878;2023-06-10T11:38:21;2.45;;;2.22;;
18019;SDS011;9135;48.362;10.878;2023-06-10T11:40:50;2.90;;;2.17;;
18019;SDS011;9135;48.362;10.878;2023-06-10T11:43:17;2.17;;;1.98;;
18019;SDS011;9135;48.362;10.878;2023-06-10T11:45:43;1.92;;;1.83;;
18019;SDS011;9135;48.362;10.878;2023-06-10T11:48:09;2.75;;;2.42;;
18019;SDS011;9135;48.362;10.878;2023-06-10T11:50:36;4.57;;;2.38;;
18019;SDS011;9135;48.362;10.878;2023-06-10T11:53:02;5.18;;;2.15;;
18019;SDS011;9135;48.362;10.878;2023-06-10T11:55:42;1.83;;;1.73;;
18019;SDS011;9135;48.362;10.878;2023-06-10T11:58:15;2.92;;;1.88;;
18019;SDS011;9135;48.362;10.878;2023-06-10T12:00:48;3.03;;;2.80;;
18019;SDS011;9135;48.362;10.878;2023-06-10T12:03:14;2.58;;;2.35;;
18019;SDS011;9135;48.362;10.878;2023-06-10T12:05:53;2.35;;;2.15;;
18019;SDS011;9135;48.362;10.878;2023-06-10T12:08:19;3.42;;;3.08;;
18019;SDS011;9135;48.362;10.878;2023-06-10T12:10:45;2.80;;;2.50;;
18019;SDS011;9135;48.362;10.878;2023-06-10T12:13:11;4.38;;;3.33;;
18019;SDS011;9135;48.362;10.878;2023-06-10T12:15:37;2.65;;;2.38;;
18019;SDS011;9135;48.362;10.878;2023-06-10T12:18:03;3.17;;;2.88;;
18019;SDS011;9135;48.362;10.878;2023-06-10T12:20:30;3.97;;;2.85;;
18019;SDS011;9135;48.362;10.878;2023-06-10T12:23:00;3.53;;;3.00;;
18019;SDS011;9135;48.362;10.878;2023-06-10T12:25:27;3.03;;;2.72;;
18019;SDS011;9135;48.362;10.878;2023-06-10T12:27:54;3.80;;;2.28;;
18019;SDS011;9135;48.362;10.878;2023-06-10T12:30:21;2.70;;;2.50;;
18019;SDS011;9135;48.362;10.878;2023-06-10T12:32:47;3.15;;;2.72;;
18019;SDS011;9135;48.362;10.878;2023-06-10T12:35:17;3.58;;;2.70;;
18019;SDS011;9135;48.362;10.878;2023-06-10T12:38:03;4.10;;;2.47;;
18019;SDS011;9135;48.362;10.878;2023-06-10T12:42:58;2.50;;;2.20;;
18019;SDS011;9135;48.362;10.878;2023-06-10T12:45:33;2.40;;;2.20;;
18019;SDS011;9135;48.362;10.878;2023-06-10T12:48:06;3.10;;;2.85;;
18019;SDS011;9135;48.362;10.878;2023-06-10T12:50:34;2.60;;;2.20;;
18019;SDS011;9135;48.362;10.878;2023-06-10T12:53:00;4.22;;;2.88;;
18019;SDS011;9135;48.362;10.878;2023-06-10T12:55:26;3.25;;;2.95;;
18019;SDS011;9135;48.362;10.878;2023-06-10T12:57:53;2.63;;;2.42;;
18019;SDS011;9135;48.362;10.878;2023-06-10T13:00:21;2.13;;;2.00;;
18019;SDS011;9135;48.362;10.878;2023-06-10T13:02:50;2.42;;;2.22;;
18019;SDS011;9135;48.362;10.878;2023-06-10T13:05:17;2.25;;;1.83;;
18019;SDS011;9135;48.362;10.878;2023-06-10T13:07:43;2.60;;;2.40;;
18019;SDS011;9135;48.362;10.878;2023-06-10T13:10:09;3.83;;;2.72;;
18019;SDS011;9135;48.362;10.878;2023-06-10T13:12:35;2.65;;;2.42;;
18019;SDS011;9135;48.362;10.878;2023-06-10T13:15:02;4.47;;;3.50;;
18019;SDS011;9135;48.362;10.878;2023-06-10T13:17:28;3.17;;;2.30;;
18019;SDS011;9135;48.362;10.878;2023-06-10T13:19:54;2.45;;;2.20;;
18019;SDS011;9135;48.362;10.878;2023-06-10T13:22:20;2.88;;;2.67;;
18019;SDS011;9135;48.362;10.878;2023-06-10T13:24:48;2.25;;;2.00;;
18019;SDS011;9135;48.362;10.878;2023-06-10T13:27:14;4.00;;;2.42;;
18019;SDS011;9135;48.362;10.878;2023-06-10T13:29:41;2.47;;;2.28;;
18019;SDS011;9135;48.362;10.878;2023-06-10T13:32:07;2.60;;;1.83;;
18019;SDS011;9135;48.362;10.878;2023-06-10T13:34:33;2.05;;;1.95;;
18019;SDS011;9135;48.362;10.878;2023-06-10T13:36:59;2.30;;;2.10;;
18019;SDS011;9135;48.362;10.878;2023-06-10T13:39:25;2.33;;;2.13;;
18019;SDS011;9135;48.362;10.878;2023-06-10T13:41:52;2.90;;;2.08;;
18019;SDS011;9135;48.362;10.878;2023-06-10T13:44:18;1.60;;;1.50;;
18019;SDS011;9135;48.362;10.878;2023-06-10T13:46:44;1.50;;;1.40;;
18019;SDS011;9135;48.362;10.878;2023-06-10T13:49:10;2.67;;;2.08;;
18019;SDS011;9135;48.362;10.878;2023-06-10T13:51:36;1.73;;;1.60;;
18019;SDS011;9135;48.362;10.878;2023-06-10T13:54:02;2.13;;;2.03;;
18019;SDS011;9135;48.362;10.878;2023-06-10T13:56:28;1.88;;;1.77;;
18019;SDS011;9135;48.362;10.878;2023-06-10T13:58:55;2.03;;;1.85;;
18019;SDS011;9135;48.362;10.878;2023-06-10T14:01:21;2.53;;;1.75;;
18019;SDS011;9135;48.362;10.878;2023-06-10T14:03:47;2.72;;;2.13;;
18019;SDS011;9135;48.362;10.878;2023-06-10T14:06:13;1.90;;;1.80;;
18019;SDS011;9135;48.362;10.878;2023-06-10T14:08:43;2.05;;;1.95;;
18019;SDS011;9135;48.362;10.878;2023-06-10T14:11:09;1.73;;;1.63;;
18019;SDS011;9135;48.362;10.878;2023-06-10T14:13:35;1.65;;;1.55;;
18019;SDS011;9135;48.362;10.878;2023-06-10T14:16:03;1.65;;;1.45;;
18019;SDS011;9135;48.362;10.878;2023-06-10T14:18:29;1.33;;;1.30;;
18019;SDS011;9135;48.362;10.878;2023-06-10T14:20:56;1.40;;;1.30;;
18019;SDS011;9135;48.362;10.878;2023-06-10T14:23:22;1.80;;;1.70;;
18019;SDS011;9135;48.362;10.878;2023-06-10T14:25:49;1.58;;;1.48;;
18019;SDS011;9135;48.362;10.878;2023-06-10T14:28:15;1.52;;;1.30;;
18019;SDS011;9135;48.362;10.878;2023-06-10T14:30:41;1.17;;;1.08;;
18019;SDS011;9135;48.362;10.878;2023-06-10T14:33:07;1.80;;;1.70;;
18019;SDS011;9135;48.362;10.878;2023-06-10T14:35:33;2.15;;;1.80;;
18019;SDS011;9135;48.362;10.878;2023-06-10T14:37:59;1.90;;;1.65;;
18019;SDS011;9135;48.362;10.878;2023-06-10T14:40:25;1.48;;;1.38;;
18019;SDS011;9135;48.362;10.878;2023-06-10T14:42:53;2.00;;;1.88;;
18019;SDS011;9135;48.362;10.878;2023-06-10T14:45:19;3.45;;;1.45;;
18019;SDS011;9135;48.362;10.878;2023-06-10T14:47:45;2.67;;;1.98;;
18019;SDS011;9135;48.362;10.878;2023-06-10T14:50:12;1.88;;;1.40;;
18019;SDS011;9135;48.362;10.878;2023-06-10T14:52:38;1.77;;;1.67;;
18019;SDS011;9135;48.362;10.878;2023-06-10T14:55:05;1.85;;;1.65;;
18019;SDS011;9135;48.362;10.878;2023-06-10T14:57:31;1.55;;;1.42;;
18019;SDS011;9135;48.362;10.878;2023-06-10T14:59:57;1.65;;;1.30;;
18019;SDS011;9135;48.362;10.878;2023-06-10T15:02:23;1.75;;;1.50;;
18019;SDS011;9135;48.362;10.878;2023-06-10T15:04:50;2.30;;;2.05;;
18019;SDS011;9135;48.362;10.878;2023-06-10T15:07:16;1.83;;;1.73;;